Terminal Aerodrome Forecast
Issued by NWS Blacksburg, VA

Current Version | Previous Version | Graphics & Text | Print | Product List | Glossary On
Versions: 1 2 3 4 5 6 7 8 9 10 11 12 13 14 15 16 17 18 19 20 21 22 23 24 25 26
000
FTUS41 KRNK 280956 AAA
TAFBLF
TAF AMD
KBLF 280956Z 2810/2906 00000KT P6SM SKC
     FM281100 00000KT P6SM SCT025
     FM281400 VRB03KT P6SM BKN035
     FM282000 17007KT P6SM -SHRA BKN040
     FM282300 19002KT P6SM SCT040=

USA.gov is the U.S. government's official web portal to all federal, state and local government web resources and services.